PWSweather.com
Personal Weather Stations
Station Observations
LEONMETEO
LeonES 24008

LeonES 24008

Lat: 42.6055559, Lon: -5.5752249

Elevation: 2690

Station Type: La Crosse WS3600

Latest ConditionsUpdated 10:30:59 AM GMT+01:01 Thursday, Apr 17, 2014
Currently Today's Max Today's Min Today's Average
Temperature 61.1°F16.2°C 61.1°F16.2°C 50.9°F10.5°C 54.5°F12.5°C
Dew Point 52.8°F11.6°C 53.0°F11.7°C 45.2°F7.3°C 48.4°F9.1°C
Winds - N16091.8 kmh N Calm Calm - Calm Calm
Wind Gusts -- -- - -
Humidity 74% 82% 74% 80%
Pressure 29.93 in1013.5 mb 29.93 in1013.5 mb 29.89 in1012.2 mb -
Hour Temp Dew Point Humidity Winds Wind Gusts Pressure Precip Precip Rate Daily Precip Total
10:30 AM 61.1°F16.2°C 52.8°F11.6°C 74% - N16091.8 kmh N -- 29.93 in1013.5 mb 0.00 in0.0 mm 0.00 in/hr0.0 mm/hr 0.00 in0.0 mm
10:25 AM 60.9°F16.1°C 53.0°F11.7°C 75% - N16091.8 kmh N -- 29.93 in1013.5 mb 0.00 in0.0 mm 0.00 in/hr0.0 mm/hr 0.00 in0.0 mm
10:20 AM 60.6°F15.9°C 52.7°F11.5°C 75% - N16091.8 kmh N -- 29.93 in1013.5 mb 0.00 in0.0 mm 0.00 in/hr0.0 mm/hr 0.00 in0.0 mm
10:15 AM 60.4°F15.8°C 52.8°F11.6°C 76% - N16091.8 kmh N -- 29.93 in1013.5 mb 0.00 in0.0 mm 0.00 in/hr0.0 mm/hr 0.00 in0.0 mm
10:10 AM 60.2°F15.7°C 52.7°F11.5°C 76% - N16091.8 kmh N -- 29.93 in1013.5 mb 0.00 in0.0 mm 0.00 in/hr0.0 mm/hr 0.00 in0.0 mm
10:05 AM 59.9°F15.5°C 52.7°F11.5°C 77% - N16091.8 kmh N -- 29.93 in1013.5 mb 0.00 in0.0 mm 0.00 in/hr0.0 mm/hr 0.00 in0.0 mm
10:00 AM 59.7°F15.4°C 52.5°F11.4°C 77% - N16091.8 kmh N -- 29.93 in1013.5 mb 0.00 in0.0 mm 0.00 in/hr0.0 mm/hr 0.00 in0.0 mm
09:55 AM 59.1°F15.1°C 51.9°F11.1°C 77% - N16091.8 kmh N -- 29.93 in1013.5 mb 0.00 in0.0 mm 0.00 in/hr0.0 mm/hr 0.00 in0.0 mm
09:50 AM 59.0°F15.0°C 51.8°F11.0°C 77% - N16091.8 kmh N -- 29.93 in1013.5 mb 0.00 in0.0 mm 0.00 in/hr0.0 mm/hr 0.00 in0.0 mm
09:45 AM 58.8°F14.9°C 51.9°F11.1°C 78% - N16091.8 kmh N -- 29.93 in1013.5 mb 0.00 in0.0 mm 0.00 in/hr0.0 mm/hr 0.00 in0.0 mm
09:40 AM 58.2°F14.6°C 51.8°F11.0°C 79% - N16091.8 kmh N -- 29.92 in1013.2 mb 0.00 in0.0 mm 0.00 in/hr0.0 mm/hr 0.00 in0.0 mm
09:35 AM 57.9°F14.4°C 51.4°F10.8°C 79% - N16091.8 kmh N -- 29.92 in1013.2 mb 0.00 in0.0 mm 0.00 in/hr0.0 mm/hr 0.00 in0.0 mm
09:30 AM 57.5°F14.2°C 51.0°F10.6°C 79% - N16091.8 kmh N -- 29.92 in1013.2 mb 0.00 in0.0 mm 0.00 in/hr0.0 mm/hr 0.00 in0.0 mm
09:25 AM 57.0°F13.9°C 50.9°F10.5°C 80% - N16091.8 kmh N -- 29.92 in1013.2 mb 0.00 in0.0 mm 0.00 in/hr0.0 mm/hr 0.00 in0.0 mm
09:20 AM 56.4°F13.6°C 50.3°F10.2°C 80% - N16091.8 kmh N -- 29.93 in1013.5 mb 0.00 in0.0 mm 0.00 in/hr0.0 mm/hr 0.00 in0.0 mm
09:15 AM 56.1°F13.4°C 50.0°F10.0°C 80% - N16091.8 kmh N -- 29.93 in1013.5 mb 0.00 in0.0 mm 0.00 in/hr0.0 mm/hr 0.00 in0.0 mm
09:10 AM 55.5°F13.1°C 49.7°F9.8°C 81% - N16091.8 kmh N -- 29.93 in1013.5 mb 0.00 in0.0 mm 0.00 in/hr0.0 mm/hr 0.00 in0.0 mm
09:05 AM 55.2°F12.9°C 49.4°F9.7°C 81% - N16091.8 kmh N -- 29.93 in1013.5 mb 0.00 in0.0 mm 0.00 in/hr0.0 mm/hr 0.00 in0.0 mm
09:00 AM 55.0°F12.8°C 49.2°F9.6°C 81% - N16091.8 kmh N -- 29.92 in1013.2 mb 0.00 in0.0 mm 0.00 in/hr0.0 mm/hr 0.00 in0.0 mm
08:55 AM 54.6°F12.6°C 48.9°F9.4°C 81% - N16091.8 kmh N -- 29.92 in1013.2 mb 0.00 in0.0 mm 0.00 in/hr0.0 mm/hr 0.00 in0.0 mm
08:50 AM 54.1°F12.3°C 48.4°F9.1°C 81% - N16091.8 kmh N -- 29.92 in1013.2 mb 0.00 in0.0 mm 0.00 in/hr0.0 mm/hr 0.00 in0.0 mm
08:45 AM 53.7°F12.1°C 48.1°F8.9°C 81% - N16091.8 kmh N -- 29.92 in1013.2 mb 0.00 in0.0 mm 0.00 in/hr0.0 mm/hr 0.00 in0.0 mm
08:40 AM 53.6°F12.0°C 47.9°F8.8°C 81% - N16091.8 kmh N -- 29.92 in1013.2 mb 0.00 in0.0 mm 0.00 in/hr0.0 mm/hr 0.00 in0.0 mm
08:35 AM 53.4°F11.9°C 47.7°F8.7°C 81% - N16091.8 kmh N -- 29.93 in1013.5 mb 0.00 in0.0 mm 0.00 in/hr0.0 mm/hr 0.00 in0.0 mm
08:30 AM 53.0°F11.7°C 47.4°F8.6°C 81% - N16091.8 kmh N -- 29.92 in1013.2 mb 0.00 in0.0 mm 0.00 in/hr0.0 mm/hr 0.00 in0.0 mm
08:24 AM 52.8°F11.6°C 47.5°F8.6°C 82% - N16091.8 kmh N -- 29.92 in1013.2 mb 0.00 in0.0 mm 0.00 in/hr0.0 mm/hr 0.00 in0.0 mm
08:19 AM 52.7°F11.5°C 47.0°F8.3°C 82% - N16091.8 kmh N -- 29.93 in1013.5 mb 0.00 in0.0 mm 0.00 in/hr0.0 mm/hr 0.00 in0.0 mm
08:14 AM 52.3°F11.3°C 47.0°F8.3°C 82% - N16091.8 kmh N -- 29.93 in1013.5 mb 0.00 in0.0 mm 0.00 in/hr0.0 mm/hr 0.00 in0.0 mm
08:09 AM 52.3°F11.3°C 47.0°F8.3°C 82% - N16091.8 kmh N -- 29.92 in1013.2 mb 0.00 in0.0 mm 0.00 in/hr0.0 mm/hr 0.00 in0.0 mm
08:04 AM 51.9°F11.1°C 46.6°F8.1°C 82% - N16091.8 kmh N -- 29.92 in1013.2 mb 0.00 in0.0 mm 0.00 in/hr0.0 mm/hr 0.00 in0.0 mm
07:59 AM 51.9°F11.1°C 46.6°F8.1°C 82% - N16091.8 kmh N -- 29.92 in1013.2 mb 0.00 in0.0 mm 0.00 in/hr0.0 mm/hr 0.00 in0.0 mm
07:55 AM 51.6°F10.9°C 46.2°F7.9°C 82% - N16091.8 kmh N -- 29.92 in1013.2 mb 0.00 in0.0 mm 0.00 in/hr0.0 mm/hr 0.00 in0.0 mm
07:49 AM 51.6°F10.9°C 46.2°F7.9°C 82% - N16091.8 kmh N -- 29.92 in1013.2 mb 0.00 in0.0 mm 0.00 in/hr0.0 mm/hr 0.00 in0.0 mm
07:44 AM 51.4°F10.8°C 46.1°F7.8°C 82% - N16091.8 kmh N -- 29.92 in1013.2 mb 0.00 in0.0 mm 0.00 in/hr0.0 mm/hr 0.00 in0.0 mm
07:39 AM 51.4°F10.8°C 46.1°F7.8°C 82% - N16091.8 kmh N -- 29.92 in1013.2 mb 0.00 in0.0 mm 0.00 in/hr0.0 mm/hr 0.00 in0.0 mm
07:34 AM 51.4°F10.8°C 46.1°F7.8°C 82% - N16091.8 kmh N -- 29.92 in1013.2 mb 0.00 in0.0 mm 0.00 in/hr0.0 mm/hr 0.00 in0.0 mm
07:29 AM 51.0°F10.6°C 45.4°F7.4°C 82% - N16091.8 kmh N -- 29.92 in1013.2 mb 0.00 in0.0 mm 0.00 in/hr0.0 mm/hr 0.00 in0.0 mm
07:24 AM 51.0°F10.6°C 45.4°F7.4°C 82% - N16091.8 kmh N -- 29.92 in1013.2 mb 0.00 in0.0 mm 0.00 in/hr0.0 mm/hr 0.00 in0.0 mm
07:19 AM 51.0°F10.6°C 45.4°F7.4°C 82% - N16091.8 kmh N -- 29.91 in1012.9 mb 0.00 in0.0 mm 0.00 in/hr0.0 mm/hr 0.00 in0.0 mm
07:14 AM 51.0°F10.6°C 45.4°F7.4°C 82% - N16091.8 kmh N -- 29.91 in1012.9 mb 0.00 in0.0 mm 0.00 in/hr0.0 mm/hr 0.00 in0.0 mm
07:09 AM 51.0°F10.6°C 45.4°F7.4°C 82% - N16091.8 kmh N -- 29.91 in1012.9 mb 0.00 in0.0 mm 0.00 in/hr0.0 mm/hr 0.00 in0.0 mm
07:04 AM 51.0°F10.6°C 45.4°F7.4°C 82% - N16091.8 kmh N -- 29.91 in1012.9 mb 0.00 in0.0 mm 0.00 in/hr0.0 mm/hr 0.00 in0.0 mm
06:59 AM 51.0°F10.6°C 45.4°F7.4°C 82% - N16091.8 kmh N -- 29.91 in1012.9 mb 0.00 in0.0 mm 0.00 in/hr0.0 mm/hr 0.00 in0.0 mm
06:54 AM 50.9°F10.5°C 45.2°F7.3°C 81% - N16091.8 kmh N -- 29.91 in1012.9 mb 0.00 in0.0 mm 0.00 in/hr0.0 mm/hr 0.00 in0.0 mm
06:49 AM 51.0°F10.6°C 45.4°F7.4°C 81% - N16091.8 kmh N -- 29.91 in1012.9 mb 0.00 in0.0 mm 0.00 in/hr0.0 mm/hr 0.00 in0.0 mm
06:44 AM 51.0°F10.6°C 45.4°F7.4°C 81% - N16091.8 kmh N -- 29.91 in1012.9 mb 0.00 in0.0 mm 0.00 in/hr0.0 mm/hr 0.00 in0.0 mm
06:39 AM 51.0°F10.6°C 45.4°F7.4°C 81% - N16091.8 kmh N -- 29.90 in1012.5 mb 0.00 in0.0 mm 0.00 in/hr0.0 mm/hr 0.00 in0.0 mm
06:34 AM 51.0°F10.6°C 45.4°F7.4°C 81% - N16091.8 kmh N -- 29.91 in1012.9 mb 0.00 in0.0 mm 0.00 in/hr0.0 mm/hr 0.00 in0.0 mm
06:29 AM 51.0°F10.6°C 45.4°F7.4°C 81% - N16091.8 kmh N -- 29.91 in1012.9 mb 0.00 in0.0 mm 0.00 in/hr0.0 mm/hr 0.00 in0.0 mm
06:24 AM 51.2°F10.7°C 45.6°F7.6°C 81% - N16091.8 kmh N -- 29.91 in1012.9 mb 0.00 in0.0 mm 0.00 in/hr0.0 mm/hr 0.00 in0.0 mm
06:19 AM 51.4°F10.8°C 45.5°F7.5°C 81% - N16091.8 kmh N -- 29.91 in1012.9 mb 0.00 in0.0 mm 0.00 in/hr0.0 mm/hr 0.00 in0.0 mm
06:14 AM 51.4°F10.8°C 45.5°F7.5°C 81% - N16091.8 kmh N -- 29.91 in1012.9 mb 0.00 in0.0 mm 0.00 in/hr0.0 mm/hr 0.00 in0.0 mm
06:09 AM 51.4°F10.8°C 45.5°F7.5°C 80% - N16091.8 kmh N -- 29.91 in1012.9 mb 0.00 in0.0 mm 0.00 in/hr0.0 mm/hr 0.00 in0.0 mm
06:04 AM 51.6°F10.9°C 45.6°F7.6°C 80% - N16091.8 kmh N -- 29.90 in1012.5 mb 0.00 in0.0 mm 0.00 in/hr0.0 mm/hr 0.00 in0.0 mm
05:59 AM 51.6°F10.9°C 45.6°F7.6°C 80% - N16091.8 kmh N -- 29.90 in1012.5 mb 0.00 in0.0 mm 0.00 in/hr0.0 mm/hr 0.00 in0.0 mm
05:54 AM 51.9°F11.1°C 46.0°F7.8°C 80% - N16091.8 kmh N -- 29.90 in1012.5 mb 0.00 in0.0 mm 0.00 in/hr0.0 mm/hr 0.00 in0.0 mm
05:49 AM 51.9°F11.1°C 46.0°F7.8°C 80% - N16091.8 kmh N -- 29.90 in1012.5 mb 0.00 in0.0 mm 0.00 in/hr0.0 mm/hr 0.00 in0.0 mm
05:44 AM 52.1°F11.2°C 46.2°F7.9°C 80% - N16091.8 kmh N -- 29.90 in1012.5 mb 0.00 in0.0 mm 0.00 in/hr0.0 mm/hr 0.00 in0.0 mm
05:39 AM 52.3°F11.3°C 46.4°F8.0°C 80% - N16091.8 kmh N -- 29.89 in1012.2 mb 0.00 in0.0 mm 0.00 in/hr0.0 mm/hr 0.00 in0.0 mm
05:34 AM 52.5°F11.4°C 46.5°F8.1°C 80% - N16091.8 kmh N -- 29.89 in1012.2 mb 0.00 in0.0 mm 0.00 in/hr0.0 mm/hr 0.00 in0.0 mm
05:29 AM 52.7°F11.5°C 46.7°F8.2°C 80% - N16091.8 kmh N -- 29.89 in1012.2 mb 0.00 in0.0 mm 0.00 in/hr0.0 mm/hr 0.00 in0.0 mm
05:24 AM 52.8°F11.6°C 46.9°F8.3°C 80% - N16091.8 kmh N -- 29.90 in1012.5 mb 0.00 in0.0 mm 0.00 in/hr0.0 mm/hr 0.00 in0.0 mm
05:19 AM 53.2°F11.8°C 47.3°F8.5°C 80% - N16091.8 kmh N -- 29.90 in1012.5 mb 0.00 in0.0 mm 0.00 in/hr0.0 mm/hr 0.00 in0.0 mm
05:14 AM 53.2°F11.8°C 47.3°F8.5°C 80% - N16091.8 kmh N -- 29.90 in1012.5 mb 0.00 in0.0 mm 0.00 in/hr0.0 mm/hr 0.00 in0.0 mm
05:09 AM 53.4°F11.9°C 47.4°F8.6°C 80% - N16091.8 kmh N -- 29.90 in1012.5 mb 0.00 in0.0 mm 0.00 in/hr0.0 mm/hr 0.00 in0.0 mm
05:04 AM 53.6°F12.0°C 47.6°F8.7°C 80% - N16091.8 kmh N -- 29.90 in1012.5 mb 0.00 in0.0 mm 0.00 in/hr0.0 mm/hr 0.00 in0.0 mm
04:59 AM 53.7°F12.1°C 47.8°F8.8°C 80% - N16091.8 kmh N -- 29.90 in1012.5 mb 0.00 in0.0 mm 0.00 in/hr0.0 mm/hr 0.00 in0.0 mm
04:54 AM 53.9°F12.2°C 47.9°F8.8°C 80% - N16091.8 kmh N -- 29.90 in1012.5 mb 0.00 in0.0 mm 0.00 in/hr0.0 mm/hr 0.00 in0.0 mm
04:49 AM 53.9°F12.2°C 47.9°F8.8°C 80% - N16091.8 kmh N -- 29.90 in1012.5 mb 0.00 in0.0 mm 0.00 in/hr0.0 mm/hr 0.00 in0.0 mm
04:44 AM 54.1°F12.3°C 48.1°F8.9°C 80% - N16091.8 kmh N -- 29.90 in1012.5 mb 0.00 in0.0 mm 0.00 in/hr0.0 mm/hr 0.00 in0.0 mm
04:39 AM 54.1°F12.3°C 48.1°F8.9°C 80% - N16091.8 kmh N -- 29.90 in1012.5 mb 0.00 in0.0 mm 0.00 in/hr0.0 mm/hr 0.00 in0.0 mm
04:34 AM 54.1°F12.3°C 48.1°F8.9°C 80% - N16091.8 kmh N -- 29.90 in1012.5 mb 0.00 in0.0 mm 0.00 in/hr0.0 mm/hr 0.00 in0.0 mm
04:28 AM 54.1°F12.3°C 48.1°F8.9°C 80% - N16091.8 kmh N -- 29.90 in1012.5 mb 0.00 in0.0 mm 0.00 in/hr0.0 mm/hr 0.00 in0.0 mm
04:23 AM 54.1°F12.3°C 48.1°F8.9°C 80% - N16091.8 kmh N -- 29.90 in1012.5 mb 0.00 in0.0 mm 0.00 in/hr0.0 mm/hr 0.00 in0.0 mm
04:18 AM 54.1°F12.3°C 48.1°F8.9°C 80% - N16091.8 kmh N -- 29.90 in1012.5 mb 0.00 in0.0 mm 0.00 in/hr0.0 mm/hr 0.00 in0.0 mm
04:14 AM 54.1°F12.3°C 48.1°F8.9°C 80% - N16091.8 kmh N -- 29.90 in1012.5 mb 0.00 in0.0 mm 0.00 in/hr0.0 mm/hr 0.00 in0.0 mm
04:09 AM 54.3°F12.4°C 48.3°F9.1°C 80% - N16091.8 kmh N -- 29.90 in1012.5 mb 0.00 in0.0 mm 0.00 in/hr0.0 mm/hr 0.00 in0.0 mm
04:04 AM 54.1°F12.3°C 48.1°F8.9°C 80% - N16091.8 kmh N -- 29.90 in1012.5 mb 0.00 in0.0 mm 0.00 in/hr0.0 mm/hr 0.00 in0.0 mm
03:59 AM 54.3°F12.4°C 48.3°F9.1°C 80% - N16091.8 kmh N -- 29.89 in1012.2 mb 0.00 in0.0 mm 0.00 in/hr0.0 mm/hr 0.00 in0.0 mm
03:53 AM 54.3°F12.4°C 48.3°F9.1°C 80% - N16091.8 kmh N -- 29.90 in1012.5 mb 0.00 in0.0 mm 0.00 in/hr0.0 mm/hr 0.00 in0.0 mm
03:48 AM 54.3°F12.4°C 48.3°F9.1°C 80% - N16091.8 kmh N -- 29.90 in1012.5 mb 0.00 in0.0 mm 0.00 in/hr0.0 mm/hr 0.00 in0.0 mm
03:43 AM 54.3°F12.4°C 48.3°F9.1°C 80% - N16091.8 kmh N -- 29.90 in1012.5 mb 0.00 in0.0 mm 0.00 in/hr0.0 mm/hr 0.00 in0.0 mm
03:38 AM 54.3°F12.4°C 48.3°F9.1°C 80% - N16091.8 kmh N -- 29.90 in1012.5 mb 0.00 in0.0 mm 0.00 in/hr0.0 mm/hr 0.00 in0.0 mm
03:33 AM 54.5°F12.5°C 48.4°F9.1°C 80% - N16091.8 kmh N -- 29.90 in1012.5 mb 0.00 in0.0 mm 0.00 in/hr0.0 mm/hr 0.00 in0.0 mm
03:28 AM 54.5°F12.5°C 48.4°F9.1°C 80% - N16091.8 kmh N -- 29.89 in1012.2 mb 0.00 in0.0 mm 0.00 in/hr0.0 mm/hr 0.00 in0.0 mm
03:23 AM 54.6°F12.6°C 48.6°F9.2°C 80% - N16091.8 kmh N -- 29.90 in1012.5 mb 0.00 in0.0 mm 0.00 in/hr0.0 mm/hr 0.00 in0.0 mm
03:18 AM 54.6°F12.6°C 48.6°F9.2°C 80% - N16091.8 kmh N -- 29.90 in1012.5 mb 0.00 in0.0 mm 0.00 in/hr0.0 mm/hr 0.00 in0.0 mm
03:13 AM 54.6°F12.6°C 48.6°F9.2°C 80% - N16091.8 kmh N -- 29.90 in1012.5 mb 0.00 in0.0 mm 0.00 in/hr0.0 mm/hr 0.00 in0.0 mm
03:08 AM 54.6°F12.6°C 48.6°F9.2°C 80% - N16091.8 kmh N -- 29.90 in1012.5 mb 0.00 in0.0 mm 0.00 in/hr0.0 mm/hr 0.00 in0.0 mm
03:03 AM 54.6°F12.6°C 48.6°F9.2°C 80% - N16091.8 kmh N -- 29.90 in1012.5 mb 0.00 in0.0 mm 0.00 in/hr0.0 mm/hr 0.00 in0.0 mm
02:58 AM 54.6°F12.6°C 48.6°F9.2°C 80% - N16091.8 kmh N -- 29.90 in1012.5 mb 0.00 in0.0 mm 0.00 in/hr0.0 mm/hr 0.00 in0.0 mm
02:53 AM 54.8°F12.7°C 48.7°F9.3°C 80% - N16091.8 kmh N -- 29.90 in1012.5 mb 0.00 in0.0 mm 0.00 in/hr0.0 mm/hr 0.00 in0.0 mm
02:48 AM 55.0°F12.8°C 48.9°F9.4°C 80% - N16091.8 kmh N -- 29.90 in1012.5 mb 0.00 in0.0 mm 0.00 in/hr0.0 mm/hr 0.00 in0.0 mm
02:43 AM 55.0°F12.8°C 48.9°F9.4°C 80% - N16091.8 kmh N -- 29.90 in1012.5 mb 0.00 in0.0 mm 0.00 in/hr0.0 mm/hr 0.00 in0.0 mm
02:38 AM 55.0°F12.8°C 48.9°F9.4°C 80% - N16091.8 kmh N -- 29.90 in1012.5 mb 0.00 in0.0 mm 0.00 in/hr0.0 mm/hr 0.00 in0.0 mm
02:33 AM 55.2°F12.9°C 49.1°F9.5°C 80% - N16091.8 kmh N -- 29.90 in1012.5 mb 0.00 in0.0 mm 0.00 in/hr0.0 mm/hr 0.00 in0.0 mm
02:28 AM 55.2°F12.9°C 49.1°F9.5°C 80% - N16091.8 kmh N -- 29.90 in1012.5 mb 0.00 in0.0 mm 0.00 in/hr0.0 mm/hr 0.00 in0.0 mm
02:23 AM 55.2°F12.9°C 49.1°F9.5°C 80% - N16091.8 kmh N -- 29.90 in1012.5 mb 0.00 in0.0 mm 0.00 in/hr0.0 mm/hr 0.00 in0.0 mm
02:18 AM 55.2°F12.9°C 49.1°F9.5°C 80% - N16091.8 kmh N -- 29.90 in1012.5 mb 0.00 in0.0 mm 0.00 in/hr0.0 mm/hr 0.00 in0.0 mm
02:13 AM 55.4°F13.0°C 49.2°F9.6°C 80% - N16091.8 kmh N -- 29.90 in1012.5 mb 0.00 in0.0 mm 0.00 in/hr0.0 mm/hr 0.00 in0.0 mm
02:08 AM 55.5°F13.1°C 49.4°F9.7°C 80% - N16091.8 kmh N -- 29.90 in1012.5 mb 0.00 in0.0 mm 0.00 in/hr0.0 mm/hr 0.00 in0.0 mm
02:03 AM 55.5°F13.1°C 49.4°F9.7°C 80% - N16091.8 kmh N -- 29.90 in1012.5 mb 0.00 in0.0 mm 0.00 in/hr0.0 mm/hr 0.00 in0.0 mm
01:58 AM 55.5°F13.1°C 49.4°F9.7°C 80% - N16091.8 kmh N -- 29.90 in1012.5 mb 0.00 in0.0 mm 0.00 in/hr0.0 mm/hr 0.00 in0.0 mm
01:53 AM 55.7°F13.2°C 49.6°F9.8°C 80% - N16091.8 kmh N -- 29.90 in1012.5 mb 0.00 in0.0 mm 0.00 in/hr0.0 mm/hr 0.00 in0.0 mm
01:48 AM 55.5°F13.1°C 49.4°F9.7°C 80% - N16091.8 kmh N -- 29.90 in1012.5 mb 0.00 in0.0 mm 0.00 in/hr0.0 mm/hr 0.00 in0.0 mm
01:43 AM 55.5°F13.1°C 49.4°F9.7°C 80% - N16091.8 kmh N -- 29.90 in1012.5 mb 0.00 in0.0 mm 0.00 in/hr0.0 mm/hr 0.00 in0.0 mm
01:38 AM 55.5°F13.1°C 49.4°F9.7°C 80% - N16091.8 kmh N -- 29.90 in1012.5 mb 0.00 in0.0 mm 0.00 in/hr0.0 mm/hr 0.00 in0.0 mm
01:33 AM 55.5°F13.1°C 49.4°F9.7°C 80% - N16091.8 kmh N -- 29.90 in1012.5 mb 0.00 in0.0 mm 0.00 in/hr0.0 mm/hr 0.00 in0.0 mm
01:28 AM 55.7°F13.2°C 49.6°F9.8°C 80% - N16091.8 kmh N -- 29.90 in1012.5 mb 0.00 in0.0 mm 0.00 in/hr0.0 mm/hr 0.00 in0.0 mm
01:23 AM 55.9°F13.3°C 49.8°F9.9°C 80% - N16091.8 kmh N -- 29.90 in1012.5 mb 0.00 in0.0 mm 0.00 in/hr0.0 mm/hr 0.00 in0.0 mm
01:18 AM 55.9°F13.3°C 49.8°F9.9°C 80% - N16091.8 kmh N -- 29.90 in1012.5 mb 0.00 in0.0 mm 0.00 in/hr0.0 mm/hr 0.00 in0.0 mm
01:13 AM 56.1°F13.4°C 49.6°F9.8°C 79% - N16091.8 kmh N -- 29.90 in1012.5 mb 0.00 in0.0 mm 0.00 in/hr0.0 mm/hr 0.00 in0.0 mm
01:08 AM 56.1°F13.4°C 49.6°F9.8°C 79% - N16091.8 kmh N -- 29.90 in1012.5 mb 0.00 in0.0 mm 0.00 in/hr0.0 mm/hr 0.00 in0.0 mm
01:03 AM 56.3°F13.5°C 49.8°F9.9°C 79% - N16091.8 kmh N -- 29.91 in1012.9 mb 0.00 in0.0 mm 0.00 in/hr0.0 mm/hr 0.00 in0.0 mm
12:58 AM 56.4°F13.6°C 49.6°F9.8°C 78% - N16091.8 kmh N -- 29.91 in1012.9 mb 0.00 in0.0 mm 0.00 in/hr0.0 mm/hr 0.00 in0.0 mm
12:53 AM 56.8°F13.8°C 50.0°F10.0°C 78% - N16091.8 kmh N -- 29.90 in1012.5 mb 0.00 in0.0 mm 0.00 in/hr0.0 mm/hr 0.00 in0.0 mm
12:48 AM 56.8°F13.8°C 50.0°F10.0°C 78% - N16091.8 kmh N -- 29.90 in1012.5 mb 0.00 in0.0 mm 0.00 in/hr0.0 mm/hr 0.00 in0.0 mm
12:43 AM 57.0°F13.9°C 50.1°F10.1°C 78% - N16091.8 kmh N -- 29.90 in1012.5 mb 0.00 in0.0 mm 0.00 in/hr0.0 mm/hr 0.00 in0.0 mm
12:38 AM 57.2°F14.0°C 50.3°F10.2°C 78% - N16091.8 kmh N -- 29.90 in1012.5 mb 0.00 in0.0 mm 0.00 in/hr0.0 mm/hr 0.00 in0.0 mm
12:33 AM 57.3°F14.1°C 50.5°F10.3°C 78% - N16091.8 kmh N -- 29.90 in1012.5 mb 0.00 in0.0 mm 0.00 in/hr0.0 mm/hr 0.00 in0.0 mm
12:28 AM 57.3°F14.1°C 50.5°F10.3°C 78% - N16091.8 kmh N -- 29.90 in1012.5 mb 0.00 in0.0 mm 0.00 in/hr0.0 mm/hr 0.00 in0.0 mm
12:23 AM 57.3°F14.1°C 50.5°F10.3°C 78% - N16091.8 kmh N -- 29.90 in1012.5 mb 0.00 in0.0 mm 0.00 in/hr0.0 mm/hr 0.00 in0.0 mm
12:18 AM 57.3°F14.1°C 50.5°F10.3°C 78% - N16091.8 kmh N -- 29.90 in1012.5 mb 0.00 in0.0 mm 0.00 in/hr0.0 mm/hr 0.00 in0.0 mm
12:13 AM 57.5°F14.2°C 50.3°F10.2°C 77% - N16091.8 kmh N -- 29.90 in1012.5 mb 0.00 in0.0 mm 0.00 in/hr0.0 mm/hr 0.00 in0.0 mm
12:08 AM 57.7°F14.3°C 50.5°F10.3°C 77% - N16091.8 kmh N -- 29.90 in1012.5 mb 0.00 in0.0 mm 0.00 in/hr0.0 mm/hr 0.00 in0.0 mm
12:03 AM 57.7°F14.3°C 50.5°F10.3°C 77% - N16091.8 kmh N -- 29.90 in1012.5 mb 0.00 in0.0 mm 0.00 in/hr0.0 mm/hr 0.00 in0.0 mm